sensor_id;sensor_type;location;lat;lon;timestamp;pressure;altitude;pressure_sealevel;temperature;humidity
6974;BME280;3527;52.376;8.990;2022-12-13T00:01:47;69532.09;;;-145.07;100.00
6974;BME280;3527;52.376;8.990;2022-12-13T00:04:36;69532.09;;;-145.07;100.00
6974;BME280;3527;52.376;8.990;2022-12-13T00:07:23;69532.09;;;-145.07;100.00
6974;BME280;3527;52.376;8.990;2022-12-13T00:10:09;69532.09;;;-145.07;100.00
6974;BME280;3527;52.376;8.990;2022-12-13T00:12:57;69532.09;;;-145.07;100.00
6974;BME280;3527;52.376;8.990;2022-12-13T00:15:57;69532.09;;;-145.07;100.00
6974;BME280;3527;52.376;8.990;2022-12-13T00:18:56;69532.09;;;-145.07;100.00
6974;BME280;3527;52.376;8.990;2022-12-13T00:21:43;69532.09;;;-145.07;100.00
6974;BME280;3527;52.376;8.990;2022-12-13T00:24:30;69532.09;;;-145.07;100.00
6974;BME280;3527;52.376;8.990;2022-12-13T00:27:17;69532.09;;;-145.07;100.00
6974;BME280;3527;52.376;8.990;2022-12-13T00:30:05;69532.09;;;-145.07;100.00
6974;BME280;3527;52.376;8.990;2022-12-13T00:32:52;69532.09;;;-145.07;100.00
6974;BME280;3527;52.376;8.990;2022-12-13T00:35:39;69532.09;;;-145.07;100.00
6974;BME280;3527;52.376;8.990;2022-12-13T00:38:27;69532.09;;;-145.07;100.00
6974;BME280;3527;52.376;8.990;2022-12-13T00:41:16;69532.09;;;-145.07;100.00
6974;BME280;3527;52.376;8.990;2022-12-13T00:44:04;69532.09;;;-145.07;100.00
6974;BME280;3527;52.376;8.990;2022-12-13T00:46:51;69532.09;;;-145.07;100.00
6974;BME280;3527;52.376;8.990;2022-12-13T00:49:39;69532.09;;;-145.07;100.00
6974;BME280;3527;52.376;8.990;2022-12-13T00:52:26;69532.09;;;-145.07;100.00
6974;BME280;3527;52.376;8.990;2022-12-13T00:55:12;69532.09;;;-145.07;100.00
6974;BME280;3527;52.376;8.990;2022-12-13T00:58:00;69532.09;;;-145.07;100.00
6974;BME280;3527;52.376;8.990;2022-12-13T01:00:47;69532.09;;;-145.07;100.00
6974;BME280;3527;52.376;8.990;2022-12-13T01:03:34;69532.09;;;-145.07;100.00
6974;BME280;3527;52.376;8.990;2022-12-13T01:06:36;69532.09;;;-145.07;100.00
6974;BME280;3527;52.376;8.990;2022-12-13T01:09:25;69532.09;;;-145.07;100.00
6974;BME280;3527;52.376;8.990;2022-12-13T01:12:16;69532.09;;;-145.07;100.00
6974;BME280;3527;52.376;8.990;2022-12-13T01:15:04;69532.09;;;-145.07;100.00
6974;BME280;3527;52.376;8.990;2022-12-13T01:17:52;69532.09;;;-145.07;100.00
6974;BME280;3527;52.376;8.990;2022-12-13T01:20:39;69532.09;;;-145.07;100.00
6974;BME280;3527;52.376;8.990;2022-12-13T01:23:27;69532.09;;;-145.07;100.00
6974;BME280;3527;52.376;8.990;2022-12-13T01:26:17;69532.09;;;-145.07;100.00
6974;BME280;3527;52.376;8.990;2022-12-13T01:29:04;69532.09;;;-145.07;100.00
6974;BME280;3527;52.376;8.990;2022-12-13T01:31:52;69532.09;;;-145.07;100.00
6974;BME280;3527;52.376;8.990;2022-12-13T01:34:40;69532.09;;;-145.07;100.00
6974;BME280;3527;52.376;8.990;2022-12-13T01:37:27;69532.09;;;-145.07;100.00
6974;BME280;3527;52.376;8.990;2022-12-13T01:40:14;69532.09;;;-145.07;100.00
6974;BME280;3527;52.376;8.990;2022-12-13T01:43:02;69532.09;;;-145.07;100.00
6974;BME280;3527;52.376;8.990;2022-12-13T01:46:00;69532.09;;;-145.07;100.00
6974;BME280;3527;52.376;8.990;2022-12-13T01:52:08;69532.09;;;-145.07;100.00
6974;BME280;3527;52.376;8.990;2022-12-13T01:54:59;69532.09;;;-145.07;100.00
6974;BME280;3527;52.376;8.990;2022-12-13T01:57:50;69532.09;;;-145.07;100.00
6974;BME280;3527;52.376;8.990;2022-12-13T02:00:39;69532.09;;;-145.07;100.00
6974;BME280;3527;52.376;8.990;2022-12-13T02:03:27;69532.09;;;-145.07;100.00
6974;BME280;3527;52.376;8.990;2022-12-13T02:06:24;69532.09;;;-145.07;100.00
6974;BME280;3527;52.376;8.990;2022-12-13T02:09:13;69532.09;;;-145.07;100.00
6974;BME280;3527;52.376;8.990;2022-12-13T02:12:01;69532.09;;;-145.07;100.00
6974;BME280;3527;52.376;8.990;2022-12-13T02:14:50;69532.09;;;-145.07;100.00
6974;BME280;3527;52.376;8.990;2022-12-13T02:21:09;69532.09;;;-145.07;100.00
6974;BME280;3527;52.376;8.990;2022-12-13T02:24:36;69532.09;;;-145.07;100.00
6974;BME280;3527;52.376;8.990;2022-12-13T02:31:27;69532.09;;;-145.07;100.00
6974;BME280;3527;52.376;8.990;2022-12-13T02:34:23;69532.09;;;-145.07;100.00
6974;BME280;3527;52.376;8.990;2022-12-13T02:37:23;69532.09;;;-145.07;100.00
6974;BME280;3527;52.376;8.990;2022-12-13T02:40:26;69532.09;;;-145.07;100.00
6974;BME280;3527;52.376;8.990;2022-12-13T02:43:22;69532.09;;;-145.07;100.00
6974;BME280;3527;52.376;8.990;2022-12-13T02:46:21;69532.09;;;-145.07;100.00
6974;BME280;3527;52.376;8.990;2022-12-13T02:49:11;69532.09;;;-145.07;100.00
6974;BME280;3527;52.376;8.990;2022-12-13T02:51:59;69532.09;;;-145.07;100.00
6974;BME280;3527;52.376;8.990;2022-12-13T02:54:47;69532.09;;;-145.07;100.00
6974;BME280;3527;52.376;8.990;2022-12-13T02:57:36;69532.09;;;-145.07;100.00
6974;BME280;3527;52.376;8.990;2022-12-13T03:00:38;69532.09;;;-145.07;100.00
6974;BME280;3527;52.376;8.990;2022-12-13T03:07:13;69532.09;;;-145.07;100.00
6974;BME280;3527;52.376;8.990;2022-12-13T03:10:12;69532.09;;;-145.07;100.00
6974;BME280;3527;52.376;8.990;2022-12-13T03:13:06;69532.09;;;-145.07;100.00
6974;BME280;3527;52.376;8.990;2022-12-13T03:19:13;69532.09;;;-145.07;100.00
6974;BME280;3527;52.376;8.990;2022-12-13T03:22:04;69532.09;;;-145.07;100.00
6974;BME280;3527;52.376;8.990;2022-12-13T03:24:51;69532.09;;;-145.07;100.00
6974;BME280;3527;52.376;8.990;2022-12-13T03:27:39;69532.09;;;-145.07;100.00
6974;BME280;3527;52.376;8.990;2022-12-13T03:30:26;69532.09;;;-145.07;100.00
6974;BME280;3527;52.376;8.990;2022-12-13T03:33:13;69532.09;;;-145.07;100.00
6974;BME280;3527;52.376;8.990;2022-12-13T03:36:01;69532.09;;;-145.07;100.00
6974;BME280;3527;52.376;8.990;2022-12-13T03:38:49;69532.09;;;-145.07;100.00
6974;BME280;3527;52.376;8.990;2022-12-13T03:41:38;69532.09;;;-145.07;100.00
6974;BME280;3527;52.376;8.990;2022-12-13T03:44:25;69532.09;;;-145.07;100.00
6974;BME280;3527;52.376;8.990;2022-12-13T03:47:17;69532.09;;;-145.07;100.00
6974;BME280;3527;52.376;8.990;2022-12-13T03:50:04;69532.09;;;-145.07;100.00
6974;BME280;3527;52.376;8.990;2022-12-13T03:53:11;69532.09;;;-145.07;100.00
6974;BME280;3527;52.376;8.990;2022-12-13T03:56:18;69532.09;;;-145.07;100.00
6974;BME280;3527;52.376;8.990;2022-12-13T03:59:05;69532.09;;;-145.07;100.00
6974;BME280;3527;52.376;8.990;2022-12-13T04:01:53;69532.09;;;-145.07;100.00
6974;BME280;3527;52.376;8.990;2022-12-13T04:04:40;69532.09;;;-145.07;100.00
6974;BME280;3527;52.376;8.990;2022-12-13T04:07:28;69532.09;;;-145.07;100.00
6974;BME280;3527;52.376;8.990;2022-12-13T04:10:20;69532.09;;;-145.07;100.00
6974;BME280;3527;52.376;8.990;2022-12-13T04:13:12;69532.09;;;-145.07;100.00
6974;BME280;3527;52.376;8.990;2022-12-13T04:16:18;69532.09;;;-145.07;100.00
6974;BME280;3527;52.376;8.990;2022-12-13T04:19:06;69532.09;;;-145.07;100.00
6974;BME280;3527;52.376;8.990;2022-12-13T04:21:53;69532.09;;;-145.07;100.00
6974;BME280;3527;52.376;8.990;2022-12-13T04:24:40;69532.09;;;-145.07;100.00
6974;BME280;3527;52.376;8.990;2022-12-13T04:27:27;69532.09;;;-145.07;100.00
6974;BME280;3527;52.376;8.990;2022-12-13T04:30:14;69532.09;;;-145.07;100.00
6974;BME280;3527;52.376;8.990;2022-12-13T04:33:02;69532.09;;;-145.07;100.00
6974;BME280;3527;52.376;8.990;2022-12-13T04:35:49;69532.09;;;-145.07;100.00
6974;BME280;3527;52.376;8.990;2022-12-13T04:38:37;69532.09;;;-145.07;100.00
6974;BME280;3527;52.376;8.990;2022-12-13T04:41:24;69532.09;;;-145.07;100.00
6974;BME280;3527;52.376;8.990;2022-12-13T04:44:19;69532.09;;;-145.07;100.00
6974;BME280;3527;52.376;8.990;2022-12-13T04:47:15;69532.09;;;-145.07;100.00
6974;BME280;3527;52.376;8.990;2022-12-13T04:50:02;69532.09;;;-145.07;100.00
6974;BME280;3527;52.376;8.990;2022-12-13T04:52:49;69532.09;;;-145.07;100.00
6974;BME280;3527;52.376;8.990;2022-12-13T04:55:37;69532.09;;;-145.07;100.00
6974;BME280;3527;52.376;8.990;2022-12-13T04:58:24;69532.09;;;-145.07;100.00
6974;BME280;3527;52.376;8.990;2022-12-13T05:01:11;69532.09;;;-145.07;100.00
6974;BME280;3527;52.376;8.990;2022-12-13T05:04:01;69532.09;;;-145.07;100.00
6974;BME280;3527;52.376;8.990;2022-12-13T05:06:48;69532.09;;;-145.07;100.00
6974;BME280;3527;52.376;8.990;2022-12-13T05:09:35;69532.09;;;-145.07;100.00
6974;BME280;3527;52.376;8.990;2022-12-13T05:12:22;69532.09;;;-145.07;100.00
6974;BME280;3527;52.376;8.990;2022-12-13T05:15:09;69532.09;;;-145.07;100.00
6974;BME280;3527;52.376;8.990;2022-12-13T05:18:04;69532.09;;;-145.07;100.00
6974;BME280;3527;52.376;8.990;2022-12-13T05:21:01;69532.09;;;-145.07;100.00
6974;BME280;3527;52.376;8.990;2022-12-13T05:23:48;69532.09;;;-145.07;100.00
6974;BME280;3527;52.376;8.990;2022-12-13T05:26:35;69532.09;;;-145.07;100.00
6974;BME280;3527;52.376;8.990;2022-12-13T05:29:22;69532.09;;;-145.07;100.00
6974;BME280;3527;52.376;8.990;2022-12-13T05:32:09;69532.09;;;-145.07;100.00
6974;BME280;3527;52.376;8.990;2022-12-13T05:34:56;69532.09;;;-145.07;100.00
6974;BME280;3527;52.376;8.990;2022-12-13T05:37:43;69532.09;;;-145.07;100.00
6974;BME280;3527;52.376;8.990;2022-12-13T05:40:30;69532.09;;;-145.07;100.00
6974;BME280;3527;52.376;8.990;2022-12-13T05:43:17;69532.09;;;-145.07;100.00
6974;BME280;3527;52.376;8.990;2022-12-13T05:46:07;69532.09;;;-145.07;100.00
6974;BME280;3527;52.376;8.990;2022-12-13T05:48:54;69532.09;;;-145.07;100.00
6974;BME280;3527;52.376;8.990;2022-12-13T05:51:41;69532.09;;;-145.07;100.00
6974;BME280;3527;52.376;8.990;2022-12-13T05:54:29;69532.09;;;-145.07;100.00
6974;BME280;3527;52.376;8.990;2022-12-13T05:57:16;69532.09;;;-145.07;100.00
6974;BME280;3527;52.376;8.990;2022-12-13T06:00:05;69532.09;;;-145.07;100.00
6974;BME280;3527;52.376;8.990;2022-12-13T06:03:12;69532.09;;;-145.07;100.00
6974;BME280;3527;52.376;8.990;2022-12-13T06:06:00;69532.09;;;-145.07;100.00
6974;BME280;3527;52.376;8.990;2022-12-13T06:08:47;69532.09;;;-145.07;100.00
6974;BME280;3527;52.376;8.990;2022-12-13T06:11:35;69532.09;;;-145.07;100.00
6974;BME280;3527;52.376;8.990;2022-12-13T06:14:29;69532.09;;;-145.07;100.00
6974;BME280;3527;52.376;8.990;2022-12-13T06:17:16;69532.09;;;-145.07;100.00
6974;BME280;3527;52.376;8.990;2022-12-13T06:20:07;69532.09;;;-145.07;100.00
6974;BME280;3527;52.376;8.990;2022-12-13T06:23:10;69532.09;;;-145.07;100.00
6974;BME280;3527;52.376;8.990;2022-12-13T06:25:57;69532.09;;;-145.07;100.00
6974;BME280;3527;52.376;8.990;2022-12-13T06:28:44;69532.09;;;-145.07;100.00
6974;BME280;3527;52.376;8.990;2022-12-13T06:31:31;69532.09;;;-145.07;100.00
6974;BME280;3527;52.376;8.990;2022-12-13T06:34:18;69532.09;;;-145.07;100.00
6974;BME280;3527;52.376;8.990;2022-12-13T06:37:09;69532.09;;;-145.07;100.00
6974;BME280;3527;52.376;8.990;2022-12-13T06:39:56;69532.09;;;-145.07;100.00
6974;BME280;3527;52.376;8.990;2022-12-13T06:42:43;69532.09;;;-145.07;100.00
6974;BME280;3527;52.376;8.990;2022-12-13T06:45:30;69532.09;;;-145.07;100.00
6974;BME280;3527;52.376;8.990;2022-12-13T06:48:17;69532.09;;;-145.07;100.00
6974;BME280;3527;52.376;8.990;2022-12-13T06:51:06;69532.09;;;-145.07;100.00
6974;BME280;3527;52.376;8.990;2022-12-13T06:53:54;69532.09;;;-145.07;100.00
6974;BME280;3527;52.376;8.990;2022-12-13T06:56:46;69532.09;;;-145.07;100.00
6974;BME280;3527;52.376;8.990;2022-12-13T06:59:33;69532.09;;;-145.07;100.00
6974;BME280;3527;52.376;8.990;2022-12-13T07:02:20;69532.09;;;-145.07;100.00
6974;BME280;3527;52.376;8.990;2022-12-13T07:05:11;69532.09;;;-145.07;100.00
6974;BME280;3527;52.376;8.990;2022-12-13T07:07:58;69532.09;;;-145.07;100.00
6974;BME280;3527;52.376;8.990;2022-12-13T07:10:45;69532.09;;;-145.07;100.00
6974;BME280;3527;52.376;8.990;2022-12-13T07:13:35;69532.09;;;-145.07;100.00
6974;BME280;3527;52.376;8.990;2022-12-13T07:16:23;69532.09;;;-145.07;100.00
6974;BME280;3527;52.376;8.990;2022-12-13T07:19:11;69532.09;;;-145.07;100.00
6974;BME280;3527;52.376;8.990;2022-12-13T07:22:09;69532.09;;;-145.07;100.00
6974;BME280;3527;52.376;8.990;2022-12-13T07:24:56;69532.09;;;-145.07;100.00
6974;BME280;3527;52.376;8.990;2022-12-13T07:27:43;69532.09;;;-145.07;100.00
6974;BME280;3527;52.376;8.990;2022-12-13T07:30:34;69532.09;;;-145.07;100.00
6974;BME280;3527;52.376;8.990;2022-12-13T07:33:27;69532.09;;;-145.07;100.00
6974;BME280;3527;52.376;8.990;2022-12-13T07:36:20;69532.09;;;-145.07;100.00
6974;BME280;3527;52.376;8.990;2022-12-13T07:39:07;69532.09;;;-145.07;100.00
6974;BME280;3527;52.376;8.990;2022-12-13T07:41:54;69532.09;;;-145.07;100.00
6974;BME280;3527;52.376;8.990;2022-12-13T07:44:41;69532.09;;;-145.07;100.00
6974;BME280;3527;52.376;8.990;2022-12-13T07:47:30;69532.09;;;-145.07;100.00
6974;BME280;3527;52.376;8.990;2022-12-13T07:50:23;69532.09;;;-145.07;100.00
6974;BME280;3527;52.376;8.990;2022-12-13T07:53:11;69532.09;;;-145.07;100.00
6974;BME280;3527;52.376;8.990;2022-12-13T07:56:06;69532.09;;;-145.07;100.00
6974;BME280;3527;52.376;8.990;2022-12-13T07:58:53;69532.09;;;-145.07;100.00
6974;BME280;3527;52.376;8.990;2022-12-13T08:01:40;69532.09;;;-145.07;100.00
6974;BME280;3527;52.376;8.990;2022-12-13T08:04:27;69532.09;;;-145.07;100.00
6974;BME280;3527;52.376;8.990;2022-12-13T08:07:23;69532.09;;;-145.07;100.00
6974;BME280;3527;52.376;8.990;2022-12-13T08:10:10;69532.09;;;-145.07;100.00
6974;BME280;3527;52.376;8.990;2022-12-13T08:12:57;69532.09;;;-145.07;100.00
6974;BME280;3527;52.376;8.990;2022-12-13T08:15:44;69532.09;;;-145.07;100.00
6974;BME280;3527;52.376;8.990;2022-12-13T08:18:32;69532.09;;;-145.07;100.00
6974;BME280;3527;52.376;8.990;2022-12-13T08:21:19;69532.09;;;-145.07;100.00
6974;BME280;3527;52.376;8.990;2022-12-13T08:24:28;69532.09;;;-145.07;100.00
6974;BME280;3527;52.376;8.990;2022-12-13T08:27:15;69532.09;;;-145.07;100.00
6974;BME280;3527;52.376;8.990;2022-12-13T08:30:02;69532.09;;;-145.07;100.00
6974;BME280;3527;52.376;8.990;2022-12-13T08:32:49;69532.09;;;-145.07;100.00
6974;BME280;3527;52.376;8.990;2022-12-13T08:35:36;69532.09;;;-145.07;100.00
6974;BME280;3527;52.376;8.990;2022-12-13T08:38:26;69532.09;;;-145.07;100.00
6974;BME280;3527;52.376;8.990;2022-12-13T08:41:13;69532.09;;;-145.07;100.00
6974;BME280;3527;52.376;8.990;2022-12-13T08:44:00;69532.09;;;-145.07;100.00
6974;BME280;3527;52.376;8.990;2022-12-13T08:46:48;69532.09;;;-145.07;100.00
6974;BME280;3527;52.376;8.990;2022-12-13T08:49:35;69532.09;;;-145.07;100.00
6974;BME280;3527;52.376;8.990;2022-12-13T08:52:22;69532.09;;;-145.07;100.00
6974;BME280;3527;52.376;8.990;2022-12-13T08:55:10;69532.09;;;-145.07;100.00
6974;BME280;3527;52.376;8.990;2022-12-13T08:57:58;69532.09;;;-145.07;100.00
6974;BME280;3527;52.376;8.990;2022-12-13T09:00:47;69532.09;;;-145.07;100.00
6974;BME280;3527;52.376;8.990;2022-12-13T09:03:36;69532.09;;;-145.07;100.00
6974;BME280;3527;52.376;8.990;2022-12-13T09:06:23;69532.09;;;-145.07;100.00
6974;BME280;3527;52.376;8.990;2022-12-13T09:09:10;69532.09;;;-145.07;100.00
6974;BME280;3527;52.376;8.990;2022-12-13T09:11:57;69532.09;;;-145.07;100.00
6974;BME280;3527;52.376;8.990;2022-12-13T09:14:45;69532.09;;;-145.07;100.00
6974;BME280;3527;52.376;8.990;2022-12-13T09:17:32;69532.09;;;-145.07;100.00
6974;BME280;3527;52.376;8.990;2022-12-13T09:20:23;69532.09;;;-145.07;100.00
6974;BME280;3527;52.376;8.990;2022-12-13T09:23:15;69532.09;;;-145.07;100.00
6974;BME280;3527;52.376;8.990;2022-12-13T09:26:11;69532.09;;;-145.07;100.00
6974;BME280;3527;52.376;8.990;2022-12-13T09:29:00;69532.09;;;-145.07;100.00
6974;BME280;3527;52.376;8.990;2022-12-13T09:31:57;69532.09;;;-145.07;100.00
6974;BME280;3527;52.376;8.990;2022-12-13T09:34:46;69532.09;;;-145.07;100.00
6974;BME280;3527;52.376;8.990;2022-12-13T09:37:33;69532.09;;;-145.07;100.00
6974;BME280;3527;52.376;8.990;2022-12-13T09:40:26;69532.09;;;-145.07;100.00
6974;BME280;3527;52.376;8.990;2022-12-13T09:43:26;69532.09;;;-145.07;100.00
6974;BME280;3527;52.376;8.990;2022-12-13T09:46:25;69532.09;;;-145.07;100.00
6974;BME280;3527;52.376;8.990;2022-12-13T09:49:35;69532.09;;;-145.07;100.00
6974;BME280;3527;52.376;8.990;2022-12-13T09:52:24;69532.09;;;-145.07;100.00
6974;BME280;3527;52.376;8.990;2022-12-13T09:55:24;69532.09;;;-145.07;100.00
6974;BME280;3527;52.376;8.990;2022-12-13T09:58:24;69532.09;;;-145.07;100.00
6974;BME280;3527;52.376;8.990;2022-12-13T10:01:13;69532.09;;;-145.07;100.00
6974;BME280;3527;52.376;8.990;2022-12-13T10:04:13;69532.09;;;-145.07;100.00
6974;BME280;3527;52.376;8.990;2022-12-13T10:07:06;69532.09;;;-145.07;100.00
6974;BME280;3527;52.376;8.990;2022-12-13T10:09:59;69532.09;;;-145.07;100.00
6974;BME280;3527;52.376;8.990;2022-12-13T10:16:03;69532.09;;;-145.07;100.00
6974;BME280;3527;52.376;8.990;2022-12-13T10:18:53;69532.09;;;-145.07;100.00
6974;BME280;3527;52.376;8.990;2022-12-13T10:21:42;69532.09;;;-145.07;100.00
6974;BME280;3527;52.376;8.990;2022-12-13T10:24:51;69532.09;;;-145.07;100.00
6974;BME280;3527;52.376;8.990;2022-12-13T10:27:44;69532.09;;;-145.07;100.00
6974;BME280;3527;52.376;8.990;2022-12-13T10:30:39;69532.09;;;-145.07;100.00
6974;BME280;3527;52.376;8.990;2022-12-13T10:33:43;69532.09;;;-145.07;100.00
6974;BME280;3527;52.376;8.990;2022-12-13T10:36:36;69532.09;;;-145.07;100.00
6974;BME280;3527;52.376;8.990;2022-12-13T10:39:39;69532.09;;;-145.07;100.00
6974;BME280;3527;52.376;8.990;2022-12-13T10:42:26;69532.09;;;-145.07;100.00
6974;BME280;3527;52.376;8.990;2022-12-13T10:45:20;69532.09;;;-145.07;100.00
6974;BME280;3527;52.376;8.990;2022-12-13T10:48:21;69532.09;;;-145.07;100.00
6974;BME280;3527;52.376;8.990;2022-12-13T10:51:12;69532.09;;;-145.07;100.00
6974;BME280;3527;52.376;8.990;2022-12-13T10:53:59;69532.09;;;-145.07;100.00
6974;BME280;3527;52.376;8.990;2022-12-13T10:56:49;69532.09;;;-145.07;100.00
6974;BME280;3527;52.376;8.990;2022-12-13T10:59:39;69532.09;;;-145.07;100.00
6974;BME280;3527;52.376;8.990;2022-12-13T11:02:30;69532.09;;;-145.07;100.00
6974;BME280;3527;52.376;8.990;2022-12-13T11:05:30;69532.09;;;-145.07;100.00
6974;BME280;3527;52.376;8.990;2022-12-13T11:08:22;69532.09;;;-145.07;100.00
6974;BME280;3527;52.376;8.990;2022-12-13T11:11:16;69532.09;;;-145.07;100.00
6974;BME280;3527;52.376;8.990;2022-12-13T11:14:04;69532.09;;;-145.07;100.00
6974;BME280;3527;52.376;8.990;2022-12-13T11:16:54;69532.09;;;-145.07;100.00
6974;BME280;3527;52.376;8.990;2022-12-13T11:19:45;69532.09;;;-145.07;100.00
6974;BME280;3527;52.376;8.990;2022-12-13T11:22:35;69532.09;;;-145.07;100.00
6974;BME280;3527;52.376;8.990;2022-12-13T11:25:34;69532.09;;;-145.07;100.00
6974;BME280;3527;52.376;8.990;2022-12-13T11:28:50;69532.09;;;-145.07;100.00
6974;BME280;3527;52.376;8.990;2022-12-13T11:40:58;69532.09;;;-145.07;100.00
6974;BME280;3527;52.376;8.990;2022-12-13T11:47:16;100789.06;;;-2.34;100.00
6974;BME280;3527;52.376;8.990;2022-12-13T11:50:14;100788.00;;;-2.38;100.00
6974;BME280;3527;52.376;8.990;2022-12-13T11:53:53;100782.22;;;-2.31;100.00
6974;BME280;3527;52.376;8.990;2022-12-13T11:56:43;100773.19;;;-2.32;100.00
6974;BME280;3527;52.376;8.990;2022-12-13T11:59:35;100772.50;;;-2.13;100.00
6974;BME280;3527;52.376;8.990;2022-12-13T12:02:33;100768.16;;;-2.20;100.00
6974;BME280;3527;52.376;8.990;2022-12-13T12:05:54;100761.03;;;-2.15;100.00
6974;BME280;3527;52.376;8.990;2022-12-13T12:08:46;100766.88;;;-1.98;100.00
6974;BME280;3527;52.376;8.990;2022-12-13T12:17:32;69532.09;;;-145.07;100.00
6974;BME280;3527;52.376;8.990;2022-12-13T12:42:49;69532.09;;;-145.07;100.00
6974;BME280;3527;52.376;8.990;2022-12-13T12:52:55;69532.09;;;-145.07;100.00
6974;BME280;3527;52.376;8.990;2022-12-13T12:55:22;69532.09;;;-145.07;100.00
6974;BME280;3527;52.376;8.990;2022-12-13T13:04:04;69532.09;;;-145.07;100.00
6974;BME280;3527;52.376;8.990;2022-12-13T13:07:05;69532.09;;;-145.07;100.00
6974;BME280;3527;52.376;8.990;2022-12-13T13:10:09;69532.09;;;-145.07;100.00
6974;BME280;3527;52.376;8.990;2022-12-13T13:13:35;69532.09;;;-145.07;100.00
6974;BME280;3527;52.376;8.990;2022-12-13T13:16:39;69532.09;;;-145.07;100.00
6974;BME280;3527;52.376;8.990;2022-12-13T13:22:28;69532.09;;;-145.07;100.00
6974;BME280;3527;52.376;8.990;2022-12-13T13:25:26;69532.09;;;-145.07;100.00
6974;BME280;3527;52.376;8.990;2022-12-13T13:28:16;69532.09;;;-145.07;100.00
6974;BME280;3527;52.376;8.990;2022-12-13T13:31:06;69532.09;;;-145.07;100.00
6974;BME280;3527;52.376;8.990;2022-12-13T13:33:54;69532.09;;;-145.07;100.00
6974;BME280;3527;52.376;8.990;2022-12-13T13:42:24;69532.09;;;-145.07;100.00
6974;BME280;3527;52.376;8.990;2022-12-13T13:45:23;69532.09;;;-145.07;100.00
6974;BME280;3527;52.376;8.990;2022-12-13T14:04:37;69532.09;;;-145.07;100.00
6974;BME280;3527;52.376;8.990;2022-12-13T14:10:49;69532.09;;;-145.07;100.00
6974;BME280;3527;52.376;8.990;2022-12-13T14:29:43;69532.09;;;-145.07;100.00
6974;BME280;3527;52.376;8.990;2022-12-13T14:32:37;69532.09;;;-145.07;100.00
6974;BME280;3527;52.376;8.990;2022-12-13T14:35:32;69532.09;;;-145.07;100.00
6974;BME280;3527;52.376;8.990;2022-12-13T14:38:23;69532.09;;;-145.07;100.00
6974;BME280;3527;52.376;8.990;2022-12-13T14:41:16;69532.09;;;-145.07;100.00
6974;BME280;3527;52.376;8.990;2022-12-13T14:44:15;69532.09;;;-145.07;100.00
6974;BME280;3527;52.376;8.990;2022-12-13T14:47:24;69532.09;;;-145.07;100.00
6974;BME280;3527;52.376;8.990;2022-12-13T14:50:42;69532.09;;;-145.07;100.00
6974;BME280;3527;52.376;8.990;2022-12-13T14:53:38;69532.09;;;-145.07;100.00
6974;BME280;3527;52.376;8.990;2022-12-13T14:56:30;69532.09;;;-145.07;100.00
6974;BME280;3527;52.376;8.990;2022-12-13T14:59:24;69532.09;;;-145.07;100.00
6974;BME280;3527;52.376;8.990;2022-12-13T15:02:15;69532.09;;;-145.07;100.00
6974;BME280;3527;52.376;8.990;2022-12-13T15:05:26;69532.09;;;-145.07;100.00
6974;BME280;3527;52.376;8.990;2022-12-13T15:08:17;69532.09;;;-145.07;100.00
6974;BME280;3527;52.376;8.990;2022-12-13T15:11:08;69532.09;;;-145.07;100.00
6974;BME280;3527;52.376;8.990;2022-12-13T15:13:56;69532.09;;;-145.07;100.00
6974;BME280;3527;52.376;8.990;2022-12-13T15:16:51;69532.09;;;-145.07;100.00
6974;BME280;3527;52.376;8.990;2022-12-13T15:19:42;69532.09;;;-145.07;100.00
6974;BME280;3527;52.376;8.990;2022-12-13T15:22:35;69532.09;;;-145.07;100.00
6974;BME280;3527;52.376;8.990;2022-12-13T15:25:37;69532.09;;;-145.07;100.00
6974;BME280;3527;52.376;8.990;2022-12-13T15:28:27;69532.09;;;-145.07;100.00
6974;BME280;3527;52.376;8.990;2022-12-13T15:31:18;69532.09;;;-145.07;100.00
6974;BME280;3527;52.376;8.990;2022-12-13T15:37:30;69532.09;;;-145.07;100.00
6974;BME280;3527;52.376;8.990;2022-12-13T15:40:19;69532.09;;;-145.07;100.00
6974;BME280;3527;52.376;8.990;2022-12-13T15:43:30;69532.09;;;-145.07;100.00
6974;BME280;3527;52.376;8.990;2022-12-13T15:46:24;69532.09;;;-145.07;100.00
6974;BME280;3527;52.376;8.990;2022-12-13T15:49:31;69532.09;;;-145.07;100.00
6974;BME280;3527;52.376;8.990;2022-12-13T15:52:41;69532.09;;;-145.07;100.00
6974;BME280;3527;52.376;8.990;2022-12-13T15:55:39;69532.09;;;-145.07;100.00
6974;BME280;3527;52.376;8.990;2022-12-13T15:58:36;69532.09;;;-145.07;100.00
6974;BME280;3527;52.376;8.990;2022-12-13T16:01:32;69532.09;;;-145.07;100.00
6974;BME280;3527;52.376;8.990;2022-12-13T16:04:24;69532.09;;;-145.07;100.00
6974;BME280;3527;52.376;8.990;2022-12-13T16:15:27;69532.09;;;-145.07;100.00
6974;BME280;3527;52.376;8.990;2022-12-13T16:18:27;69532.09;;;-145.07;100.00
6974;BME280;3527;52.376;8.990;2022-12-13T16:21:20;69532.09;;;-145.07;100.00
6974;BME280;3527;52.376;8.990;2022-12-13T16:24:16;69532.09;;;-145.07;100.00
6974;BME280;3527;52.376;8.990;2022-12-13T16:33:53;69532.09;;;-145.07;100.00
6974;BME280;3527;52.376;8.990;2022-12-13T16:36:51;69532.09;;;-145.07;100.00
6974;BME280;3527;52.376;8.990;2022-12-13T16:39:42;69532.09;;;-145.07;100.00
6974;BME280;3527;52.376;8.990;2022-12-13T16:42:33;69532.09;;;-145.07;100.00
6974;BME280;3527;52.376;8.990;2022-12-13T16:45:23;69532.09;;;-145.07;100.00
6974;BME280;3527;52.376;8.990;2022-12-13T16:48:33;69532.09;;;-145.07;100.00
6974;BME280;3527;52.376;8.990;2022-12-13T16:51:21;69532.09;;;-145.07;100.00
6974;BME280;3527;52.376;8.990;2022-12-13T16:54:30;69532.09;;;-145.07;100.00
6974;BME280;3527;52.376;8.990;2022-12-13T16:57:26;69532.09;;;-145.07;100.00
6974;BME280;3527;52.376;8.990;2022-12-13T17:00:48;69532.09;;;-145.07;100.00
6974;BME280;3527;52.376;8.990;2022-12-13T17:03:47;69532.09;;;-145.07;100.00
6974;BME280;3527;52.376;8.990;2022-12-13T17:06:39;69532.09;;;-145.07;100.00
6974;BME280;3527;52.376;8.990;2022-12-13T17:09:28;69532.09;;;-145.07;100.00
6974;BME280;3527;52.376;8.990;2022-12-13T17:12:18;69532.09;;;-145.07;100.00
6974;BME280;3527;52.376;8.990;2022-12-13T17:15:07;69532.09;;;-145.07;100.00
6974;BME280;3527;52.376;8.990;2022-12-13T17:17:55;69532.09;;;-145.07;100.00